Time;durP1;ratioP1;P1;durP2;ratioP2;P2;SDS_P1;SDS_P2;PMS_P1;PMS_P2;Temp;Humidity;BMP_temperature;BMP_pressure;BME280_temperature;BME280_humidity;BME280_pressure;Samples;Min_cycle;Max_cycle;Signal;HPM_P1;HPM_P2
2022/11/18 00:00:14;;;;;;;27.47;18.30;;;2.50;99.90;;;;;;5026397;28;20199;-70
2022/11/18 00:02:39;;;;;;;34.13;19.73;;;2.40;99.90;;;;;;5023689;28;20189;-70
2022/11/18 00:05:05;;;;;;;33.77;21.03;;;2.40;99.90;;;;;;5025607;28;20599;-69
2022/11/18 00:07:31;;;;;;;35.67;21.30;;;2.40;99.90;;;;;;5024746;28;20219;-69
2022/11/18 00:09:56;;;;;;;33.60;19.40;;;2.50;99.90;;;;;;5026500;28;20642;-69
2022/11/18 00:15:06;;;;;;;35.00;21.37;;;2.50;99.90;;;;;;5027587;28;20241;-70
2022/11/18 00:17:32;;;;;;;35.63;21.80;;;2.50;99.90;;;;;;5024679;28;20216;-68
2022/11/18 00:19:57;;;;;;;35.60;20.80;;;2.50;99.90;;;;;;5025548;28;20652;-69
2022/11/18 00:22:23;;;;;;;36.53;20.93;;;2.50;99.90;;;;;;5024976;28;20203;-70
2022/11/18 00:24:48;;;;;;;35.53;20.60;;;2.50;99.90;;;;;;5027742;28;20208;-69
2022/11/18 00:27:14;;;;;;;40.30;22.30;;;2.40;99.90;;;;;;5024769;28;20172;-68
2022/11/18 00:29:40;;;;;;;36.50;20.30;;;2.40;99.90;;;;;;5021701;28;20196;-68
2022/11/18 00:32:06;;;;;;;35.83;19.93;;;2.30;99.90;;;;;;5025672;28;20335;-69
2022/11/18 00:34:31;;;;;;;33.17;20.53;;;2.40;99.90;;;;;;5023395;28;20658;-69
2022/11/18 00:36:57;;;;;;;33.30;19.73;;;2.20;99.90;;;;;;5020780;28;20257;-68
2022/11/18 00:39:22;;;;;;;33.07;19.70;;;2.20;99.90;;;;;;5027293;28;20213;-69
2022/11/18 00:44:33;;;;;;;37.63;20.50;;;2.20;99.90;;;;;;5023026;28;20230;-68
2022/11/18 00:46:59;;;;;;;31.20;20.37;;;2.90;99.90;;;;;;5023829;28;20715;-69
2022/11/18 00:49:24;;;;;;;30.80;18.80;;;2.60;99.90;;;;;;5027021;28;20252;-70
2022/11/18 00:51:50;;;;;;;32.47;19.03;;;2.40;99.90;;;;;;5028044;28;20212;-69
2022/11/18 00:54:16;;;;;;;32.83;20.00;;;2.30;99.90;;;;;;5022752;28;20196;-67
2022/11/18 00:56:41;;;;;;;30.03;19.27;;;2.30;99.90;;;;;;5029654;28;20554;-69
2022/11/18 00:59:07;;;;;;;30.47;19.10;;;2.30;99.90;;;;;;5027323;28;20221;-68
2022/11/18 01:01:33;;;;;;;33.47;20.20;;;2.30;99.90;;;;;;5025534;28;20216;-68
2022/11/18 01:03:59;;;;;;;31.90;19.73;;;2.20;99.90;;;;;;5020935;28;20261;-68
2022/11/18 01:06:24;;;;;;;31.87;19.20;;;2.20;99.90;;;;;;5030236;28;20196;-68
2022/11/18 01:08:50;;;;;;;32.67;19.33;;;2.20;99.90;;;;;;5030831;28;20181;-68
2022/11/18 01:14:23;;;;;;;34.60;20.10;;;2.20;99.90;;;;;;4966389;28;20222;-68
2022/11/18 01:16:52;;;;;;;30.77;18.40;;;2.20;99.90;;;;;;4965164;28;20227;-68
2022/11/18 01:19:18;;;;;;;28.73;17.60;;;2.20;99.90;;;;;;4996821;28;20204;-68
2022/11/18 01:21:44;;;;;;;29.53;18.30;;;2.20;99.90;;;;;;5023981;28;20222;-68
2022/11/18 01:24:09;;;;;;;27.67;17.33;;;2.10;99.90;;;;;;5031005;28;20193;-68
2022/11/18 01:26:35;;;;;;;27.57;18.40;;;2.20;99.90;;;;;;5030463;28;20238;-69
2022/11/18 01:29:00;;;;;;;25.53;18.07;;;2.20;99.90;;;;;;5026469;28;20213;-69
2022/11/18 01:31:26;;;;;;;29.60;18.77;;;2.20;99.90;;;;;;5021241;28;20242;-69
2022/11/18 01:33:51;;;;;;;26.10;17.13;;;2.20;99.90;;;;;;5024627;28;20293;-69
2022/11/18 01:36:23;;;;;;;27.70;18.37;;;2.10;99.90;;;;;;5025902;28;20260;-69
2022/11/18 01:38:49;;;;;;;27.97;16.77;;;2.10;99.90;;;;;;5030571;28;20646;-68
2022/11/18 01:41:15;;;;;;;28.30;18.07;;;2.10;99.90;;;;;;5031256;28;21019;-68
2022/11/18 01:43:54;;;;;;;27.03;17.00;;;2.10;99.90;;;;;;5025050;28;20211;-69
2022/11/18 01:46:20;;;;;;;29.77;18.37;;;2.00;99.90;;;;;;5025072;28;20216;-69
2022/11/18 01:48:49;;;;;;;24.60;17.53;;;2.00;99.90;;;;;;5024513;28;20223;-69
2022/11/18 01:51:18;;;;;;;29.77;18.80;;;1.90;99.90;;;;;;5031554;28;20711;-68
2022/11/18 01:53:48;;;;;;;28.93;18.50;;;1.90;99.90;;;;;;5029981;28;20241;-69
2022/11/18 01:56:20;;;;;;;30.90;19.33;;;1.90;99.90;;;;;;5026948;28;20581;-69
2022/11/18 01:58:53;;;;;;;29.43;18.53;;;1.90;99.90;;;;;;5025786;28;20612;-69
2022/11/18 02:01:18;;;;;;;25.00;17.30;;;1.90;99.90;;;;;;5027105;28;20220;-68
2022/11/18 02:03:45;;;;;;;27.27;17.87;;;1.90;99.90;;;;;;5023645;28;20582;-69
2022/11/18 02:06:12;;;;;;;29.77;17.40;;;2.00;99.90;;;;;;5030048;28;20270;-69
2022/11/18 02:08:39;;;;;;;27.50;17.67;;;2.10;99.90;;;;;;5030046;28;20188;-70
2022/11/18 02:11:49;;;;;;;28.73;18.87;;;2.00;99.90;;;;;;5026121;28;20221;-69
2022/11/18 02:13:55;;;;;;;27.47;17.53;;;1.90;99.90;;;;;;5027141;28;20228;-69
2022/11/18 02:16:33;;;;;;;30.07;18.77;;;1.90;99.90;;;;;;5026451;28;20217;-69
2022/11/18 02:19:12;;;;;;;28.73;18.83;;;1.80;99.90;;;;;;5027610;28;20266;-68
2022/11/18 02:21:59;;;;;;;28.03;18.40;;;1.90;99.90;;;;;;5025058;28;20227;-69
2022/11/18 02:24:51;;;;;;;28.23;18.60;;;1.80;99.90;;;;;;5030825;28;20218;-70
2022/11/18 02:27:46;;;;;;;29.53;19.23;;;1.80;99.90;;;;;;5028045;28;20177;-68
2022/11/18 02:30:14;;;;;;;29.67;19.43;;;1.90;99.90;;;;;;5023143;28;20575;-69
2022/11/18 02:32:56;;;;;;;31.30;20.00;;;1.80;99.90;;;;;;5027175;28;20665;-69
2022/11/18 02:35:49;;;;;;;31.83;19.43;;;1.80;99.90;;;;;;5025077;28;20307;-70
2022/11/18 02:38:25;;;;;;;33.47;19.93;;;1.80;99.90;;;;;;5027366;28;20257;-68
2022/11/18 02:41:15;;;;;;;30.07;18.77;;;1.70;99.90;;;;;;5024923;28;20224;-69
2022/11/18 02:43:50;;;;;;;27.17;19.10;;;1.80;99.90;;;;;;5025579;28;20245;-70
2022/11/18 02:46:22;;;;;;;29.77;18.63;;;1.80;99.90;;;;;;5028930;28;20217;-68
2022/11/18 02:48:50;;;;;;;26.77;17.90;;;1.70;99.90;;;;;;5024549;28;20206;-70
2022/11/18 02:51:26;;;;;;;27.80;19.20;;;1.70;99.90;;;;;;5023076;28;20705;-68
2022/11/18 02:53:55;;;;;;;28.47;18.43;;;1.60;99.90;;;;;;5025123;28;20200;-70
2022/11/18 02:56:23;;;;;;;28.73;18.93;;;1.60;99.90;;;;;;5024633;28;20355;-71
2022/11/18 02:58:49;;;;;;;30.27;19.23;;;1.70;99.90;;;;;;5023388;28;20294;-70
2022/11/18 03:01:22;;;;;;;30.13;18.83;;;1.60;99.90;;;;;;5027004;28;20292;-70
2022/11/18 03:03:49;;;;;;;27.00;17.93;;;1.60;99.90;;;;;;5021645;28;20269;-70
2022/11/18 03:06:41;;;;;;;26.60;18.20;;;1.60;99.90;;;;;;5029553;28;20178;-70
2022/11/18 03:09:14;;;;;;;28.30;18.23;;;1.70;99.90;;;;;;5023397;28;20636;-70
2022/11/18 03:14:28;;;;;;;34.27;19.33;;;1.70;99.90;;;;;;5023214;28;20225;-69
2022/11/18 03:16:57;;;;;;;30.87;17.93;;;1.70;99.90;;;;;;5024710;28;20777;-69
2022/11/18 03:19:59;;;;;;;29.50;18.67;;;1.80;99.90;;;;;;5025366;28;20207;-70
2022/11/18 03:22:29;;;;;;;30.70;19.53;;;1.50;99.90;;;;;;5028946;28;20879;-69
2022/11/18 03:25:06;;;;;;;28.53;18.17;;;1.50;99.90;;;;;;5042670;28;20301;-69
2022/11/18 03:27:48;;;;;;;29.23;19.23;;;1.50;99.90;;;;;;5045754;28;20282;-70
2022/11/18 03:30:18;;;;;;;33.13;21.43;;;1.40;99.90;;;;;;5040960;28;20183;-69
2022/11/18 03:32:55;;;;;;;33.07;20.20;;;1.40;99.90;;;;;;5037595;28;20202;-69
2022/11/18 03:35:24;;;;;;;34.37;19.80;;;1.40;99.90;;;;;;5040296;28;20220;-69
2022/11/18 03:37:58;;;;;;;29.67;19.03;;;1.40;99.90;;;;;;5038042;28;20233;-69
2022/11/18 03:40:28;;;;;;;35.13;21.67;;;1.30;99.90;;;;;;5039289;28;20241;-70
2022/11/18 03:43:18;;;;;;;35.53;20.30;;;1.30;99.90;;;;;;5038518;28;20207;-69
2022/11/18 03:45:51;;;;;;;31.10;20.40;;;1.30;99.90;;;;;;5041461;28;20218;-69
2022/11/18 03:48:27;;;;;;;34.83;21.97;;;1.30;99.90;;;;;;5041468;28;20253;-70
2022/11/18 03:51:05;;;;;;;33.87;20.27;;;1.30;99.90;;;;;;5038355;28;20185;-69
2022/11/18 03:53:36;;;;;;;32.63;19.60;;;1.20;99.90;;;;;;5039859;28;20690;-69
2022/11/18 03:56:09;;;;;;;32.13;20.70;;;1.20;99.90;;;;;;5037836;28;20623;-69
2022/11/18 03:58:46;;;;;;;37.40;21.53;;;1.30;99.90;;;;;;5041621;28;20212;-69
2022/11/18 04:01:39;;;;;;;34.97;20.77;;;1.30;99.90;;;;;;5037749;28;20211;-69
2022/11/18 04:04:05;;;;;;;37.97;21.87;;;1.20;99.90;;;;;;5032791;28;20215;-70
2022/11/18 04:06:44;;;;;;;35.93;21.67;;;1.30;99.90;;;;;;5038307;28;20225;-69
2022/11/18 04:09:19;;;;;;;32.60;20.67;;;1.20;99.90;;;;;;5038251;28;20184;-69
2022/11/18 04:12:02;;;;;;;36.87;21.33;;;1.10;99.90;;;;;;5042361;28;20182;-69
2022/11/18 04:14:39;;;;;;;36.90;22.23;;;1.00;99.90;;;;;;5037304;28;20733;-69
2022/11/18 04:17:14;;;;;;;34.90;20.83;;;1.00;99.90;;;;;;5038196;28;20618;-70
2022/11/18 04:19:40;;;;;;;38.60;22.47;;;0.90;99.90;;;;;;5036514;28;20716;-69
2022/11/18 04:22:07;;;;;;;39.00;24.27;;;0.90;99.90;;;;;;5038638;28;20738;-68
2022/11/18 04:24:32;;;;;;;38.83;23.53;;;0.90;99.90;;;;;;5039303;28;20205;-69
2022/11/18 04:26:58;;;;;;;39.10;24.17;;;0.80;99.90;;;;;;5037762;28;20249;-69
2022/11/18 04:29:24;;;;;;;45.20;24.30;;;0.80;99.90;;;;;;5042782;28;20221;-69
2022/11/18 04:31:49;;;;;;;43.90;23.90;;;0.80;99.90;;;;;;5038142;28;20210;-69
2022/11/18 04:34:15;;;;;;;43.47;24.47;;;0.80;99.90;;;;;;5035228;28;20240;-69
2022/11/18 04:36:41;;;;;;;44.90;25.10;;;0.90;99.90;;;;;;5043869;28;20262;-69
2022/11/18 04:39:06;;;;;;;46.27;25.67;;;0.80;99.90;;;;;;5041880;28;20187;-69
2022/11/18 04:44:31;;;;;;;47.57;26.27;;;0.80;99.90;;;;;;5025644;28;20220;-70
2022/11/18 04:46:59;;;;;;;47.67;26.17;;;0.90;99.90;;;;;;5039346;28;20829;-70
2022/11/18 04:49:25;;;;;;;45.17;25.37;;;0.90;99.90;;;;;;5043438;28;20209;-68
2022/11/18 04:51:52;;;;;;;44.13;26.03;;;0.90;99.90;;;;;;5041555;28;20222;-70
2022/11/18 04:54:19;;;;;;;48.70;26.93;;;0.90;99.90;;;;;;5041745;28;20199;-71
2022/11/18 04:56:45;;;;;;;46.80;26.17;;;0.80;99.90;;;;;;5043877;28;20186;-69
2022/11/18 04:59:12;;;;;;;43.53;25.03;;;0.80;99.90;;;;;;5042742;28;20712;-69
2022/11/18 05:01:38;;;;;;;50.77;27.70;;;0.80;99.90;;;;;;5044551;28;20731;-70
2022/11/18 05:04:05;;;;;;;50.13;27.23;;;0.80;99.90;;;;;;5041830;28;20221;-69
2022/11/18 05:06:32;;;;;;;50.67;27.60;;;0.70;99.90;;;;;;5041835;28;20700;-69
2022/11/18 05:08:58;;;;;;;51.60;27.47;;;0.80;99.90;;;;;;5042369;28;20267;-69
2022/11/18 05:14:10;;;;;;;54.30;29.00;;;0.60;99.90;;;;;;5042664;28;20230;-69
2022/11/18 05:16:35;;;;;;;57.97;30.43;;;0.70;99.90;;;;;;5044414;28;20242;-69
2022/11/18 05:19:02;;;;;;;54.37;29.20;;;0.70;99.90;;;;;;5038841;28;20234;-69
2022/11/18 05:21:27;;;;;;;51.47;27.33;;;0.70;99.90;;;;;;5043612;28;20180;-69
2022/11/18 05:23:53;;;;;;;56.70;30.97;;;0.70;99.90;;;;;;5041975;28;20209;-69
2022/11/18 05:26:19;;;;;;;51.83;27.70;;;0.60;99.90;;;;;;5045065;28;20210;-67
2022/11/18 05:28:44;;;;;;;57.03;28.80;;;0.60;99.90;;;;;;5046887;28;20217;-69
2022/11/18 05:31:12;;;;;;;50.80;27.30;;;0.60;99.90;;;;;;5042936;28;20225;-69
2022/11/18 05:33:39;;;;;;;50.77;27.27;;;0.70;99.90;;;;;;5042793;28;20212;-69
2022/11/18 05:36:13;;;;;;;56.03;26.80;;;0.70;99.90;;;;;;5040897;28;20181;-68
2022/11/18 05:38:39;;;;;;;52.17;27.67;;;0.70;99.90;;;;;;5045523;28;20202;-69
2022/11/18 05:41:05;;;;;;;48.53;26.40;;;0.70;99.90;;;;;;5045266;28;20211;-70
2022/11/18 05:43:31;;;;;;;45.57;26.00;;;0.70;99.90;;;;;;5047259;28;20207;-69
2022/11/18 05:45:57;;;;;;;47.00;26.57;;;0.70;99.90;;;;;;5039879;28;20211;-68
2022/11/18 05:48:23;;;;;;;47.50;25.80;;;0.70;99.90;;;;;;5046969;28;20185;-68
2022/11/18 05:50:51;;;;;;;42.47;22.57;;;0.70;99.90;;;;;;5045154;28;20191;-69
2022/11/18 05:53:19;;;;;;;42.67;24.03;;;0.80;99.90;;;;;;5044529;28;20217;-70
2022/11/18 05:56:14;;;;;;;41.00;22.37;;;0.70;99.90;;;;;;5043161;28;20222;-69
2022/11/18 05:58:40;;;;;;;44.27;24.23;;;0.80;99.90;;;;;;5043140;28;20210;-69
2022/11/18 06:01:07;;;;;;;42.70;25.33;;;0.80;99.90;;;;;;5045721;28;20223;-69
2022/11/18 06:03:38;;;;;;;42.33;23.33;;;0.80;99.90;;;;;;5048144;28;20321;-69
2022/11/18 06:06:06;;;;;;;38.73;22.83;;;0.80;99.90;;;;;;5043369;28;20711;-70
2022/11/18 06:08:35;;;;;;;42.40;23.20;;;0.70;99.90;;;;;;5047323;28;20203;-69
2022/11/18 06:11:01;;;;;;;35.27;21.17;;;0.70;99.90;;;;;;5041687;28;20292;-70
2022/11/18 06:13:37;;;;;;;39.03;20.77;;;0.60;99.90;;;;;;5040394;28;20766;-69
2022/11/18 06:16:03;;;;;;;38.27;21.40;;;0.60;99.90;;;;;;5047746;28;20210;-69
2022/11/18 06:18:31;;;;;;;30.03;18.13;;;0.70;99.90;;;;;;5045897;28;20213;-69
2022/11/18 06:21:01;;;;;;;34.50;20.30;;;0.60;99.90;;;;;;5042303;28;20261;-69
2022/11/18 06:23:36;;;;;;;29.30;19.27;;;0.70;99.90;;;;;;5046290;28;20217;-69
2022/11/18 06:26:01;;;;;;;30.40;17.93;;;0.50;99.90;;;;;;5042168;28;20824;-69
2022/11/18 06:28:28;;;;;;;30.33;18.00;;;0.40;99.90;;;;;;5046775;28;20290;-69
2022/11/18 06:30:54;;;;;;;28.17;17.40;;;0.50;99.90;;;;;;5044326;28;20210;-69
2022/11/18 06:33:19;;;;;;;29.80;17.93;;;0.50;99.90;;;;;;5046441;28;20202;-69
2022/11/18 06:35:45;;;;;;;29.43;17.20;;;0.60;99.90;;;;;;5048564;28;20201;-69
2022/11/18 06:38:11;;;;;;;33.83;19.33;;;0.50;99.90;;;;;;5046955;28;20207;-69
2022/11/18 06:40:36;;;;;;;28.60;16.77;;;0.60;99.90;;;;;;5049371;28;20210;-69
2022/11/18 06:48:34;;;;;;;28.80;17.07;;;0.50;99.90;;;;;;5048574;28;20707;-70
2022/11/18 06:51:04;;;;;;;27.93;17.17;;;0.60;99.90;;;;;;5045003;28;20185;-70
2022/11/18 06:53:29;;;;;;;27.97;16.87;;;0.50;99.90;;;;;;5042520;28;20219;-70
2022/11/18 06:55:55;;;;;;;29.93;17.73;;;0.50;99.90;;;;;;5045951;28;20240;-67
2022/11/18 06:58:21;;;;;;;29.03;17.00;;;0.50;99.90;;;;;;5045750;28;20207;-70
2022/11/18 07:00:46;;;;;;;28.07;16.87;;;0.50;99.90;;;;;;5043852;28;20625;-69
2022/11/18 07:03:12;;;;;;;31.27;17.00;;;0.50;99.90;;;;;;5047323;28;20202;-70
2022/11/18 07:05:37;;;;;;;29.70;17.33;;;0.50;99.90;;;;;;5044715;28;20670;-70
2022/11/18 07:08:03;;;;;;;28.77;17.80;;;0.60;99.90;;;;;;5045618;28;20750;-70
2022/11/18 07:10:29;;;;;;;28.73;17.60;;;0.50;99.90;;;;;;5047745;28;20215;-70
2022/11/18 07:12:54;;;;;;;27.23;16.87;;;0.30;99.90;;;;;;5040423;28;20253;-70
2022/11/18 07:15:20;;;;;;;32.10;17.80;;;0.30;99.90;;;;;;5046107;28;20224;-69
2022/11/18 07:17:45;;;;;;;29.43;17.07;;;0.40;99.90;;;;;;5046424;28;20176;-69
2022/11/18 07:20:11;;;;;;;28.03;16.33;;;0.40;99.90;;;;;;5042772;28;20214;-70
2022/11/18 07:22:37;;;;;;;29.60;16.97;;;0.40;99.90;;;;;;5049542;28;20220;-69
2022/11/18 07:25:02;;;;;;;26.87;17.30;;;0.40;99.90;;;;;;5044549;28;20211;-70
2022/11/18 07:27:28;;;;;;;31.57;16.73;;;0.40;99.90;;;;;;5043985;28;20304;-67
2022/11/18 07:29:53;;;;;;;25.93;16.20;;;0.40;99.90;;;;;;5049322;28;20174;-70
2022/11/18 07:32:19;;;;;;;28.97;16.97;;;0.40;99.90;;;;;;5049826;28;20227;-70
2022/11/18 07:34:45;;;;;;;25.90;16.03;;;0.50;99.90;;;;;;5042888;28;20213;-69
2022/11/18 07:37:10;;;;;;;30.57;17.67;;;0.50;99.90;;;;;;5044958;28;20754;-69
2022/11/18 07:39:36;;;;;;;31.37;17.33;;;0.60;99.90;;;;;;5042123;28;20700;-70
2022/11/18 07:42:02;;;;;;;29.43;17.97;;;0.50;99.90;;;;;;5043891;28;20251;-70
2022/11/18 07:44:27;;;;;;;31.03;18.10;;;0.50;99.90;;;;;;5048964;28;20215;-70
2022/11/18 07:46:53;;;;;;;29.30;17.97;;;0.40;99.90;;;;;;5039235;28;20304;-69
2022/11/18 07:49:18;;;;;;;28.63;17.37;;;0.40;99.90;;;;;;5041885;28;20225;-69
2022/11/18 07:51:44;;;;;;;28.30;17.57;;;0.40;99.90;;;;;;5044554;28;20245;-70
2022/11/18 07:54:12;;;;;;;26.37;16.23;;;0.50;99.90;;;;;;5041588;28;20202;-70
2022/11/18 07:56:38;;;;;;;29.57;18.37;;;0.50;99.90;;;;;;5048613;28;20241;-69
2022/11/18 07:59:04;;;;;;;28.87;17.00;;;0.60;99.90;;;;;;5041458;28;20570;-69
2022/11/18 08:01:30;;;;;;;30.17;17.70;;;0.60;99.90;;;;;;5042965;28;20655;-69
2022/11/18 08:03:57;;;;;;;27.73;16.70;;;0.60;99.90;;;;;;5044378;28;20634;-69
2022/11/18 08:06:23;;;;;;;26.10;16.17;;;0.60;99.90;;;;;;5047449;28;20643;-70
2022/11/18 08:08:49;;;;;;;31.40;17.20;;;0.70;99.90;;;;;;5042249;28;20275;-69
2022/11/18 08:11:17;;;;;;;29.10;18.57;;;0.60;99.90;;;;;;5046063;28;20213;-70
2022/11/18 08:13:43;;;;;;;28.73;16.97;;;0.60;99.90;;;;;;5042913;28;20226;-69
2022/11/18 08:16:15;;;;;;;31.97;18.50;;;0.70;99.90;;;;;;5048290;28;20209;-70
2022/11/18 08:18:40;;;;;;;29.87;17.93;;;0.70;99.90;;;;;;5044347;28;20685;-70
2022/11/18 08:21:06;;;;;;;27.97;17.17;;;0.70;99.90;;;;;;5042967;28;20210;-69
2022/11/18 08:23:32;;;;;;;27.90;16.83;;;0.50;99.90;;;;;;5048176;28;20243;-70
2022/11/18 08:26:04;;;;;;;28.97;16.93;;;0.60;99.90;;;;;;5043161;28;20295;-70
2022/11/18 08:28:31;;;;;;;23.50;12.23;;;0.60;99.90;;;;;;5043044;28;20216;-71
2022/11/18 08:30:56;;;;;;;25.80;16.57;;;0.40;99.90;;;;;;5044338;28;20230;-69
2022/11/18 08:33:22;;;;;;;28.23;16.70;;;0.50;99.90;;;;;;5044532;28;20226;-69
2022/11/18 08:35:48;;;;;;;29.47;17.47;;;0.40;99.90;;;;;;5049168;28;20310;-70
2022/11/18 08:38:13;;;;;;;26.00;16.37;;;0.20;99.90;;;;;;5047839;28;20305;-69
2022/11/18 08:40:43;;;;;;;30.17;17.47;;;0.30;99.90;;;;;;5041715;28;20274;-70
2022/11/18 08:43:13;;;;;;;28.80;18.07;;;0.30;99.90;;;;;;5046691;28;20227;-68
2022/11/18 08:45:39;;;;;;;26.17;16.63;;;0.40;99.90;;;;;;5043016;28;20220;-69
2022/11/18 08:48:05;;;;;;;28.90;16.50;;;0.40;99.90;;;;;;5042559;28;20186;-69
2022/11/18 08:50:31;;;;;;;27.70;17.07;;;0.40;99.90;;;;;;5048033;28;20246;-70
2022/11/18 08:52:56;;;;;;;25.87;16.60;;;0.40;99.90;;;;;;5042345;28;20238;-70
2022/11/18 08:55:22;;;;;;;31.77;16.33;;;0.40;99.90;;;;;;5041641;28;20662;-70
2022/11/18 08:57:48;;;;;;;27.70;17.20;;;0.50;99.90;;;;;;5041651;28;20213;-70
2022/11/18 09:00:14;;;;;;;23.90;16.00;;;0.50;99.90;;;;;;5045361;28;20206;-71
2022/11/18 09:02:40;;;;;;;28.33;16.43;;;0.40;99.90;;;;;;5045598;28;20210;-69
2022/11/18 09:05:06;;;;;;;24.83;16.17;;;0.20;99.90;;;;;;5043509;28;20275;-69
2022/11/18 09:07:32;;;;;;;24.83;16.43;;;0.20;99.90;;;;;;5046726;28;20358;-70
2022/11/18 09:09:57;;;;;;;26.70;16.77;;;0.10;99.90;;;;;;5043380;28;20208;-70
2022/11/18 09:12:23;;;;;;;30.20;16.20;;;0.10;99.90;;;;;;5042363;28;20347;-70
2022/11/18 09:14:49;;;;;;;30.10;16.77;;;0.00;99.90;;;;;;5046364;28;20683;-70
2022/11/18 09:17:15;;;;;;;26.00;16.67;;;0.10;99.90;;;;;;5040324;28;20209;-71
2022/11/18 09:19:40;;;;;;;27.80;15.03;;;0.00;99.90;;;;;;5045309;28;20616;-71
2022/11/18 09:22:07;;;;;;;27.60;16.20;;;-0.10;99.90;;;;;;5047893;28;20340;-71
2022/11/18 09:24:33;;;;;;;24.80;14.73;;;-0.10;99.90;;;;;;5048860;28;20218;-71
2022/11/18 09:27:03;;;;;;;27.93;15.53;;;0.00;99.90;;;;;;5052731;28;20181;-66
2022/11/18 09:29:29;;;;;;;30.60;16.83;;;0.10;99.90;;;;;;5050249;28;20502;-71
2022/11/18 09:31:54;;;;;;;28.50;16.17;;;0.60;99.90;;;;;;5047944;28;20222;-71
2022/11/18 09:34:21;;;;;;;24.10;14.83;;;0.40;99.90;;;;;;5050214;28;20219;-70
2022/11/18 09:36:46;;;;;;;22.97;14.93;;;0.20;99.90;;;;;;5050103;28;20217;-71
2022/11/18 09:39:12;;;;;;;24.93;15.53;;;0.20;99.90;;;;;;5042585;28;20181;-70
2022/11/18 09:41:52;;;;;;;25.47;14.73;;;0.30;99.90;;;;;;5052636;28;20665;-69
2022/11/18 09:44:45;;;;;;;24.23;15.07;;;0.20;99.90;;;;;;5047624;28;20722;-70
2022/11/18 09:47:30;;;;;;;21.87;13.37;;;0.20;99.90;;;;;;5047531;28;20216;-70
2022/11/18 09:50:18;;;;;;;19.53;12.83;;;0.10;99.90;;;;;;5049402;28;20222;-70
2022/11/18 09:53:02;;;;;;;22.37;13.80;;;0.00;99.90;;;;;;5046053;28;20223;-69
2022/11/18 09:55:28;;;;;;;20.70;13.63;;;0.10;99.90;;;;;;5040363;28;20234;-72
2022/11/18 09:58:03;;;;;;;19.03;12.57;;;0.10;99.90;;;;;;5046917;28;20214;-72
2022/11/18 10:00:30;;;;;;;18.80;12.13;;;0.00;99.90;;;;;;5051057;28;20249;-70
2022/11/18 10:03:21;;;;;;;18.13;11.90;;;0.00;99.90;;;;;;5048668;28;20205;-70
2022/11/18 10:05:48;;;;;;;17.70;11.97;;;0.00;99.90;;;;;;5050123;28;20735;-69
2022/11/18 10:08:23;;;;;;;23.30;11.90;;;0.10;99.90;;;;;;5049392;28;20258;-69
2022/11/18 10:11:13;;;;;;;15.50;10.17;;;0.10;99.90;;;;;;5047877;28;20204;-68
2022/11/18 10:13:55;;;;;;;12.43;8.60;;;0.10;99.90;;;;;;5048189;28;20306;-69
2022/11/18 10:16:53;;;;;;;14.40;8.77;;;0.10;99.90;;;;;;5050224;28;20204;-70
2022/11/18 10:19:26;;;;;;;15.73;8.40;;;0.00;99.90;;;;;;5030502;28;20218;-69
2022/11/18 10:22:21;;;;;;;14.20;7.70;;;0.00;99.90;;;;;;5049895;28;20210;-71
2022/11/18 10:24:59;;;;;;;10.87;7.87;;;-0.10;99.90;;;;;;5043136;28;20208;-69
2022/11/18 10:27:36;;;;;;;11.37;7.60;;;-0.10;99.90;;;;;;5049869;28;20177;-69
2022/11/18 10:30:11;;;;;;;11.50;7.60;;;0.00;99.90;;;;;;5059576;28;20184;-69
2022/11/18 10:32:53;;;;;;;15.13;8.40;;;0.00;99.90;;;;;;5047691;28;20233;-70
2022/11/18 10:35:32;;;;;;;10.33;7.53;;;0.10;99.90;;;;;;5048419;28;20660;-69
2022/11/18 10:38:02;;;;;;;13.50;7.87;;;0.10;99.90;;;;;;5041550;28;20730;-69
2022/11/18 10:40:29;;;;;;;11.03;6.17;;;0.20;99.90;;;;;;5045741;28;20207;-69
2022/11/18 10:42:55;;;;;;;10.73;7.53;;;0.10;99.90;;;;;;5049276;28;20211;-70
2022/11/18 10:45:21;;;;;;;10.87;7.17;;;0.00;99.90;;;;;;5045498;28;20187;-70
2022/11/18 10:48:16;;;;;;;11.07;7.90;;;-0.10;99.90;;;;;;5043786;28;20206;-70
2022/11/18 10:50:43;;;;;;;9.30;7.03;;;0.10;99.90;;;;;;5042521;28;20695;-71
2022/11/18 10:53:30;;;;;;;9.93;6.50;;;0.10;99.90;;;;;;5047653;28;20226;-70
2022/11/18 10:56:07;;;;;;;13.03;7.00;;;0.10;99.90;;;;;;5044828;28;20229;-70
2022/11/18 10:58:41;;;;;;;9.40;7.20;;;0.20;99.90;;;;;;5045970;28;20675;-71
2022/11/18 11:01:27;;;;;;;10.57;6.87;;;0.20;99.90;;;;;;5043712;28;20213;-69
2022/11/18 11:04:20;;;;;;;8.30;5.90;;;0.30;99.90;;;;;;5047572;28;20224;-70
2022/11/18 11:06:46;;;;;;;9.87;7.07;;;0.20;99.90;;;;;;5045300;28;20252;-70
2022/11/18 11:09:12;;;;;;;10.57;7.30;;;0.30;99.90;;;;;;5048371;28;20193;-71
2022/11/18 11:11:38;;;;;;;14.10;7.20;;;0.30;99.90;;;;;;5043879;28;20180;-72
2022/11/18 11:14:25;;;;;;;9.10;6.70;;;0.30;99.90;;;;;;5041660;28;20282;-70
2022/11/18 11:17:08;;;;;;;11.40;6.97;;;0.30;99.90;;;;;;5049821;28;20213;-71
2022/11/18 11:20:05;;;;;;;11.67;7.27;;;0.10;99.90;;;;;;5043718;28;20246;-70
2022/11/18 11:22:31;;;;;;;11.53;7.03;;;0.10;99.90;;;;;;5033869;28;20233;-70
2022/11/18 11:24:57;;;;;;;10.77;7.40;;;0.10;99.90;;;;;;5049404;28;20217;-70
2022/11/18 11:27:36;;;;;;;12.13;7.93;;;0.10;99.90;;;;;;5050171;28;20656;-71
2022/11/18 11:30:14;;;;;;;11.50;7.53;;;0.20;99.90;;;;;;5047984;28;20662;-70
2022/11/18 11:33:09;;;;;;;11.50;7.77;;;0.20;99.90;;;;;;5045531;28;20210;-70
2022/11/18 11:35:50;;;;;;;14.97;8.97;;;0.20;99.90;;;;;;5049730;28;20595;-70
2022/11/18 11:38:37;;;;;;;15.97;8.27;;;0.20;99.90;;;;;;5049339;28;20229;-70
2022/11/18 11:41:11;;;;;;;12.80;8.53;;;0.20;99.90;;;;;;5041168;28;20297;-70
2022/11/18 11:43:53;;;;;;;14.57;7.90;;;0.30;99.90;;;;;;5045790;28;20212;-70
2022/11/18 11:49:56;;;;;;;11.83;8.03;;;0.50;99.90;;;;;;5013014;28;20221;-70
2022/11/18 11:52:28;;;;;;;14.30;8.73;;;0.40;99.90;;;;;;5047816;22;20766;-73
2022/11/18 11:55:13;;;;;;;12.13;7.80;;;0.60;99.90;;;;;;5021585;28;20226;-72
2022/11/18 11:58:23;;;;;;;11.27;7.37;;;0.60;99.90;;;;;;5025732;28;20214;-73
2022/11/18 12:01:04;;;;;;;11.47;7.60;;;0.60;99.90;;;;;;4999229;28;20684;-73
2022/11/18 12:03:45;;;;;;;10.60;7.40;;;0.70;99.90;;;;;;5020384;28;20603;-73
2022/11/18 12:06:11;;;;;;;11.90;8.50;;;0.60;99.90;;;;;;5027362;28;20263;-72
2022/11/18 12:08:47;;;;;;;11.27;8.17;;;0.60;99.90;;;;;;5025624;28;20262;-73
2022/11/18 12:11:34;;;;;;;11.83;8.47;;;0.60;99.90;;;;;;5022426;28;20768;-73
2022/11/18 12:14:10;;;;;;;13.10;8.23;;;0.60;99.90;;;;;;5022977;28;20216;-72
2022/11/18 12:16:56;;;;;;;14.23;9.07;;;0.70;99.90;;;;;;5024161;28;20240;-73
2022/11/18 12:19:22;;;;;;;12.67;7.73;;;0.80;99.90;;;;;;5021625;28;20206;-73
2022/11/18 12:21:48;;;;;;;12.57;7.63;;;0.70;99.90;;;;;;5024154;28;20650;-73
2022/11/18 12:24:17;;;;;;;10.93;7.87;;;0.70;99.90;;;;;;5022028;28;20184;-73
2022/11/18 12:26:47;;;;;;;15.40;9.10;;;0.70;99.90;;;;;;5023473;28;20303;-73
2022/11/18 12:29:19;;;;;;;13.50;9.17;;;0.80;99.90;;;;;;5023977;28;20215;-73
2022/11/18 12:31:55;;;;;;;12.23;7.47;;;0.90;99.90;;;;;;5021191;28;20226;-74
2022/11/18 12:34:24;;;;;;;11.70;7.63;;;0.90;99.90;;;;;;5024301;28;20223;-73
2022/11/18 12:36:51;;;;;;;7.93;5.77;;;0.90;99.90;;;;;;5023293;28;20208;-73
2022/11/18 12:39:22;;;;;;;9.37;6.63;;;0.80;99.90;;;;;;5022009;28;20177;-73
2022/11/18 12:44:47;;;;;;;9.40;6.73;;;0.60;99.90;;;;;;5022149;28;20303;-73
2022/11/18 12:47:36;;;;;;;10.10;6.33;;;0.90;99.90;;;;;;5026924;28;20220;-73
2022/11/18 12:50:01;;;;;;;8.27;5.80;;;1.00;99.90;;;;;;5020325;28;20223;-73
2022/11/18 12:52:44;;;;;;;11.47;6.30;;;1.20;99.90;;;;;;5025327;28;20224;-73
2022/11/18 12:55:19;;;;;;;9.03;6.37;;;1.30;99.90;;;;;;5022598;28;20248;-73
2022/11/18 12:57:45;;;;;;;8.53;6.07;;;1.10;99.90;;;;;;5024379;28;20281;-73
2022/11/18 13:00:23;;;;;;;9.00;6.30;;;1.00;99.90;;;;;;5031344;28;20184;-73
2022/11/18 13:02:57;;;;;;;9.03;6.40;;;0.90;99.90;;;;;;5025712;28;20238;-73
2022/11/18 13:05:33;;;;;;;9.90;6.37;;;0.90;99.90;;;;;;5028714;28;20216;-74
2022/11/18 13:08:12;;;;;;;9.77;6.67;;;0.80;99.90;;;;;;5032097;28;20215;-74
2022/11/18 13:17:50;;;;;;;9.23;6.43;;;0.90;99.90;;;;;;5027477;28;20711;-73
2022/11/18 13:19:24;;;;;;;8.73;6.43;;;1.00;99.90;;;;;;5027022;28;20263;-74
2022/11/18 13:24:52;;;;;;;15.13;9.10;;;0.60;99.90;;;;;;5025335;28;20229;-73
2022/11/18 13:27:33;;;;;;;11.97;7.80;;;0.80;99.90;;;;;;5027378;28;20174;-73
2022/11/18 13:30:05;;;;;;;10.87;6.63;;;0.80;99.90;;;;;;5025708;28;20637;-74
2022/11/18 13:32:31;;;;;;;9.93;6.60;;;0.80;99.90;;;;;;5025384;28;20212;-73
2022/11/18 13:35:09;;;;;;;8.77;6.70;;;0.80;99.90;;;;;;5025565;28;20230;-73
2022/11/18 13:37:34;;;;;;;12.57;6.40;;;0.80;99.90;;;;;;5024582;28;20215;-73